SHT17E EGPE-EGLL
Flight info
| Callsign | SHT17E |
|---|---|
| Flight time | 1h 11m |
| Altitude | 37000 |
| Route | GUSSI DCT NESDI DCT ERSON DCT AKOMU DCT VAMEB DCT NUGRA |
| Aircraft | A319/M-SDE3FGHIRWY/LB1 |
Departure
| Time | 2026-05-05 21:15 |
|---|---|
| Airport | Inverness Airport (EGPE) |
Arrival
| Time | 2026-05-05 22:26 |
|---|---|
| Airport | London Heathrow Airport (EGLL) |
| Time | Latitude | Longitude | Altitude | Speed | Heading |
|---|---|---|---|---|---|
| 2026-05-05 20:36 | 57.53819 | -4.06284 | 36 ft | 0 kts | 275° |
| 2026-05-05 21:07 | 57.53821 | -4.06286 | 36 ft | 1 kts | 303° |
| 2026-05-05 21:07 | 57.53838 | -4.06264 | 36 ft | 5 kts | 71° |
| 2026-05-05 21:08 | 57.53808 | -4.06195 | 35 ft | 9 kts | 152° |
| 2026-05-05 21:08 | 57.53760 | -4.06112 | 37 ft | 5 kts | 119° |
| 2026-05-05 21:08 | 57.53760 | -4.06111 | 37 ft | 0 kts | 119° |
| 2026-05-05 21:13 | 57.53758 | -4.06106 | 36 ft | 2 kts | 120° |
| 2026-05-05 21:13 | 57.53748 | -4.06078 | 39 ft | 4 kts | 123° |
| 2026-05-05 21:14 | 57.53724 | -4.06006 | 38 ft | 11 kts | 122° |
| 2026-05-05 21:14 | 57.53732 | -4.05883 | 37 ft | 0 kts | 49° |
| 2026-05-05 21:14 | 57.53770 | -4.05799 | 39 ft | 33 kts | 49° |
| 2026-05-05 21:14 | 57.54084 | -4.05114 | 34 ft | 106 kts | 49° |
| 2026-05-05 21:15 | 57.54705 | -4.03766 | 107 ft | 159 kts | 50° |
| 2026-05-05 21:15 | 57.55423 | -4.02212 | 854 ft | 157 kts | 50° |
| 2026-05-05 21:15 | 57.56128 | -4.00679 | 1573 ft | 158 kts | 50° |
| 2026-05-05 21:15 | 57.56668 | -3.98769 | 1893 ft | 182 kts | 84° |
| 2026-05-05 21:16 | 57.56283 | -3.96426 | 2292 ft | 202 kts | 127° |
| 2026-05-05 21:16 | 57.55043 | -3.94982 | 2640 ft | 231 kts | 169° |
| 2026-05-05 21:16 | 57.53349 | -3.95126 | 3186 ft | 255 kts | 191° |
| 2026-05-05 21:16 | 57.51600 | -3.95977 | 4115 ft | 263 kts | 198° |
| 2026-05-05 21:17 | 57.49868 | -3.97024 | 5149 ft | 267 kts | 199° |
| 2026-05-05 21:17 | 57.48091 | -3.98129 | 6171 ft | 271 kts | 199° |
| 2026-05-05 21:17 | 57.46285 | -3.99215 | 7170 ft | 275 kts | 199° |
| 2026-05-05 21:17 | 57.44445 | -4.00274 | 8127 ft | 280 kts | 198° |
| 2026-05-05 21:18 | 57.42563 | -4.01312 | 9068 ft | 284 kts | 198° |
| 2026-05-05 21:18 | 57.40655 | -4.02335 | 9969 ft | 288 kts | 198° |
| 2026-05-05 21:18 | 57.38697 | -4.03372 | 10608 ft | 303 kts | 199° |
| 2026-05-05 21:18 | 57.36586 | -4.04489 | 10950 ft | 326 kts | 198° |
| 2026-05-05 21:19 | 57.34364 | -4.05654 | 11575 ft | 336 kts | 199° |
| 2026-05-05 21:19 | 57.32093 | -4.06837 | 12333 ft | 341 kts | 199° |
| 2026-05-05 21:19 | 57.29790 | -4.08036 | 13111 ft | 345 kts | 199° |
| 2026-05-05 21:19 | 57.27470 | -4.09241 | 13889 ft | 348 kts | 199° |
| 2026-05-05 21:20 | 57.25128 | -4.10455 | 14652 ft | 350 kts | 199° |
| 2026-05-05 21:20 | 57.22806 | -4.11653 | 15366 ft | 353 kts | 199° |
| 2026-05-05 21:20 | 57.20392 | -4.12662 | 16081 ft | 359 kts | 192° |
| 2026-05-05 21:20 | 57.17905 | -4.13265 | 16789 ft | 362 kts | 191° |
| 2026-05-05 21:21 | 57.15402 | -4.13877 | 17481 ft | 364 kts | 192° |
| 2026-05-05 21:21 | 57.12879 | -4.14499 | 18144 ft | 367 kts | 192° |
| 2026-05-05 21:21 | 57.10336 | -4.15124 | 18808 ft | 370 kts | 192° |
| 2026-05-05 21:21 | 57.07772 | -4.15760 | 19479 ft | 373 kts | 192° |
| 2026-05-05 21:22 | 57.05191 | -4.16404 | 20117 ft | 376 kts | 192° |
| 2026-05-05 21:22 | 57.02585 | -4.17053 | 20728 ft | 379 kts | 192° |
| 2026-05-05 21:22 | 56.99968 | -4.17701 | 21317 ft | 382 kts | 192° |
| 2026-05-05 21:22 | 56.97321 | -4.18348 | 21901 ft | 385 kts | 192° |
| 2026-05-05 21:23 | 56.94652 | -4.18999 | 22477 ft | 388 kts | 192° |
| 2026-05-05 21:23 | 56.91961 | -4.19660 | 23039 ft | 391 kts | 192° |
| 2026-05-05 21:23 | 56.89254 | -4.20322 | 23574 ft | 394 kts | 192° |
| 2026-05-05 21:23 | 56.86525 | -4.20985 | 24086 ft | 397 kts | 192° |
| 2026-05-05 21:24 | 56.83776 | -4.21653 | 24580 ft | 399 kts | 192° |
| 2026-05-05 21:24 | 56.81048 | -4.22317 | 25068 ft | 402 kts | 192° |
| 2026-05-05 21:24 | 56.78268 | -4.22987 | 25536 ft | 404 kts | 192° |
| 2026-05-05 21:24 | 56.75467 | -4.23660 | 26005 ft | 406 kts | 192° |
| 2026-05-05 21:25 | 56.72644 | -4.24336 | 26475 ft | 408 kts | 192° |
| 2026-05-05 21:25 | 56.69813 | -4.25018 | 26921 ft | 411 kts | 192° |
| 2026-05-05 21:25 | 56.67008 | -4.25695 | 27345 ft | 413 kts | 192° |
| 2026-05-05 21:25 | 56.64151 | -4.26384 | 27775 ft | 414 kts | 192° |
| 2026-05-05 21:26 | 56.61276 | -4.27080 | 28205 ft | 417 kts | 192° |
| 2026-05-05 21:26 | 56.58393 | -4.27778 | 28619 ft | 419 kts | 192° |
| 2026-05-05 21:26 | 56.55491 | -4.28480 | 29019 ft | 422 kts | 192° |
| 2026-05-05 21:26 | 56.52578 | -4.29184 | 29410 ft | 423 kts | 192° |
| 2026-05-05 21:27 | 56.49634 | -4.29842 | 29779 ft | 428 kts | 188° |
| 2026-05-05 21:27 | 56.46637 | -4.29813 | 30148 ft | 435 kts | 179° |
| 2026-05-05 21:27 | 56.43666 | -4.28877 | 30502 ft | 443 kts | 169° |
| 2026-05-05 21:27 | 56.40721 | -4.27108 | 30856 ft | 448 kts | 164° |
| 2026-05-05 21:28 | 56.37772 | -4.25206 | 31198 ft | 449 kts | 165° |
| 2026-05-05 21:28 | 56.34822 | -4.23328 | 31518 ft | 451 kts | 165° |
| 2026-05-05 21:28 | 56.31851 | -4.21455 | 31832 ft | 452 kts | 165° |
| 2026-05-05 21:28 | 56.28879 | -4.19587 | 32263 ft | 451 kts | 165° |
| 2026-05-05 21:29 | 56.25916 | -4.17724 | 32699 ft | 449 kts | 165° |
| 2026-05-05 21:29 | 56.22965 | -4.15868 | 33147 ft | 448 kts | 165° |
| 2026-05-05 21:29 | 56.20056 | -4.14039 | 33575 ft | 446 kts | 165° |
| 2026-05-05 21:29 | 56.17127 | -4.12195 | 33996 ft | 445 kts | 165° |
| 2026-05-05 21:30 | 56.14210 | -4.10358 | 34421 ft | 443 kts | 165° |
| 2026-05-05 21:30 | 56.11295 | -4.08533 | 34793 ft | 443 kts | 165° |
| 2026-05-05 21:30 | 56.08372 | -4.06710 | 35148 ft | 444 kts | 165° |
| 2026-05-05 21:30 | 56.05449 | -4.04891 | 35467 ft | 444 kts | 165° |
| 2026-05-05 21:31 | 56.02531 | -4.03078 | 35787 ft | 445 kts | 165° |
| 2026-05-05 21:31 | 55.99605 | -4.01258 | 36091 ft | 446 kts | 165° |
| 2026-05-05 21:31 | 55.96675 | -3.99434 | 36381 ft | 446 kts | 165° |
| 2026-05-05 21:31 | 55.93738 | -3.97609 | 36644 ft | 447 kts | 165° |
| 2026-05-05 21:32 | 55.90839 | -3.95813 | 36919 ft | 447 kts | 165° |
| 2026-05-05 21:32 | 55.87898 | -3.93992 | 37111 ft | 446 kts | 165° |
| 2026-05-05 21:32 | 55.82073 | -3.90384 | 37135 ft | 441 kts | 165° |
| 2026-05-05 21:33 | 55.76273 | -3.86817 | 37127 ft | 439 kts | 165° |
| 2026-05-05 21:33 | 55.70491 | -3.83291 | 37129 ft | 439 kts | 165° |
| 2026-05-05 21:34 | 55.64728 | -3.79773 | 37127 ft | 439 kts | 165° |
| 2026-05-05 21:34 | 55.58949 | -3.76247 | 37130 ft | 439 kts | 165° |
| 2026-05-05 21:35 | 55.53159 | -3.72736 | 37131 ft | 439 kts | 165° |
| 2026-05-05 21:35 | 55.47372 | -3.69236 | 37132 ft | 439 kts | 165° |
| 2026-05-05 21:36 | 55.41580 | -3.65734 | 37134 ft | 440 kts | 165° |
| 2026-05-05 21:36 | 55.35782 | -3.62241 | 37136 ft | 440 kts | 165° |
| 2026-05-05 21:37 | 55.30023 | -3.58797 | 37133 ft | 440 kts | 165° |
| 2026-05-05 21:37 | 55.24226 | -3.55336 | 37127 ft | 439 kts | 165° |
| 2026-05-05 21:38 | 55.18448 | -3.51878 | 37123 ft | 439 kts | 165° |
| 2026-05-05 21:38 | 55.13631 | -3.49010 | 37124 ft | 439 kts | 165° |
| 2026-05-05 21:39 | 55.07846 | -3.45588 | 37122 ft | 439 kts | 165° |
| 2026-05-05 21:39 | 55.02052 | -3.42179 | 37115 ft | 439 kts | 165° |
| 2026-05-05 21:40 | 54.96261 | -3.38770 | 37113 ft | 439 kts | 165° |
| 2026-05-05 21:40 | 54.90484 | -3.35368 | 37104 ft | 439 kts | 164° |
| 2026-05-05 21:41 | 54.84726 | -3.31993 | 37101 ft | 438 kts | 164° |
| 2026-05-05 21:41 | 54.78950 | -3.28629 | 37104 ft | 438 kts | 165° |
| 2026-05-05 21:42 | 54.73169 | -3.25266 | 37097 ft | 438 kts | 164° |
| 2026-05-05 21:42 | 54.67393 | -3.21901 | 37090 ft | 438 kts | 164° |
| 2026-05-05 21:43 | 54.61614 | -3.18563 | 37091 ft | 437 kts | 165° |
| 2026-05-05 21:43 | 54.55844 | -3.15248 | 37085 ft | 437 kts | 164° |
| 2026-05-05 21:44 | 54.50069 | -3.11935 | 37084 ft | 437 kts | 164° |
| 2026-05-05 21:44 | 54.44296 | -3.08619 | 37082 ft | 437 kts | 164° |
| 2026-05-05 21:45 | 54.38563 | -3.05332 | 37084 ft | 437 kts | 164° |
| 2026-05-05 21:45 | 54.32779 | -3.02039 | 37080 ft | 437 kts | 164° |
| 2026-05-05 21:46 | 54.27011 | -2.98761 | 37079 ft | 436 kts | 164° |
| 2026-05-05 21:46 | 54.21236 | -2.95487 | 37078 ft | 436 kts | 164° |
| 2026-05-05 21:47 | 54.15478 | -2.92153 | 37077 ft | 437 kts | 162° |
| 2026-05-05 21:47 | 54.09883 | -2.88190 | 37074 ft | 438 kts | 159° |
| 2026-05-05 21:48 | 54.04327 | -2.83919 | 37072 ft | 438 kts | 158° |
| 2026-05-05 21:48 | 53.98689 | -2.80008 | 37067 ft | 435 kts | 165° |
| 2026-05-05 21:49 | 53.92937 | -2.76980 | 37070 ft | 435 kts | 165° |
| 2026-05-05 21:49 | 53.87147 | -2.73949 | 37068 ft | 435 kts | 165° |
| 2026-05-05 21:50 | 53.81377 | -2.70904 | 37066 ft | 434 kts | 165° |
| 2026-05-05 21:50 | 53.75597 | -2.67859 | 37065 ft | 434 kts | 165° |
| 2026-05-05 21:51 | 53.69825 | -2.64830 | 37066 ft | 434 kts | 165° |
| 2026-05-05 21:51 | 53.64060 | -2.61813 | 37067 ft | 434 kts | 165° |
| 2026-05-05 21:52 | 53.55398 | -2.57295 | 37066 ft | 434 kts | 165° |
| 2026-05-05 21:53 | 53.49671 | -2.54312 | 37068 ft | 434 kts | 165° |
| 2026-05-05 21:53 | 53.43886 | -2.51327 | 37069 ft | 434 kts | 165° |
| 2026-05-05 21:54 | 53.38106 | -2.48352 | 37069 ft | 434 kts | 165° |
| 2026-05-05 21:54 | 53.32337 | -2.45384 | 37066 ft | 433 kts | 165° |
| 2026-05-05 21:55 | 53.26573 | -2.42418 | 37063 ft | 433 kts | 165° |
| 2026-05-05 21:55 | 53.20803 | -2.39462 | 37062 ft | 434 kts | 165° |
| 2026-05-05 21:56 | 53.15033 | -2.36514 | 37062 ft | 433 kts | 165° |
| 2026-05-05 21:56 | 53.09265 | -2.33579 | 36816 ft | 433 kts | 165° |
| 2026-05-05 21:56 | 53.06372 | -2.32114 | 36571 ft | 432 kts | 165° |
| 2026-05-05 21:57 | 53.03565 | -2.30508 | 36328 ft | 433 kts | 159° |
| 2026-05-05 21:57 | 53.00876 | -2.28203 | 36075 ft | 437 kts | 150° |
| 2026-05-05 21:57 | 52.98383 | -2.25570 | 35825 ft | 439 kts | 149° |
| 2026-05-05 21:57 | 52.95734 | -2.22783 | 35348 ft | 442 kts | 150° |
| 2026-05-05 21:58 | 52.93112 | -2.20040 | 34484 ft | 448 kts | 149° |
| 2026-05-05 21:58 | 52.90458 | -2.17268 | 33667 ft | 452 kts | 149° |
| 2026-05-05 21:58 | 52.87817 | -2.14509 | 33212 ft | 446 kts | 150° |
| 2026-05-05 21:58 | 52.85200 | -2.11778 | 32666 ft | 443 kts | 150° |
| 2026-05-05 21:59 | 52.82595 | -2.09058 | 32136 ft | 439 kts | 150° |
| 2026-05-05 21:59 | 52.80019 | -2.06370 | 31592 ft | 436 kts | 150° |
| 2026-05-05 21:59 | 52.77465 | -2.03713 | 31073 ft | 432 kts | 150° |
| 2026-05-05 21:59 | 52.74935 | -2.01089 | 30535 ft | 428 kts | 150° |
| 2026-05-05 22:00 | 52.72421 | -1.98486 | 30001 ft | 424 kts | 150° |
| 2026-05-05 22:00 | 52.69933 | -1.95911 | 29487 ft | 419 kts | 151° |
| 2026-05-05 22:00 | 52.67479 | -1.93373 | 28981 ft | 415 kts | 151° |
| 2026-05-05 22:00 | 52.65069 | -1.90889 | 28473 ft | 411 kts | 150° |
| 2026-05-05 22:01 | 52.62633 | -1.88375 | 27972 ft | 406 kts | 150° |
| 2026-05-05 22:01 | 52.60273 | -1.85943 | 27504 ft | 402 kts | 150° |
| 2026-05-05 22:01 | 52.57919 | -1.83520 | 27035 ft | 398 kts | 150° |
| 2026-05-05 22:01 | 52.55578 | -1.81114 | 26585 ft | 394 kts | 150° |
| 2026-05-05 22:02 | 52.53256 | -1.78733 | 26135 ft | 391 kts | 150° |
| 2026-05-05 22:02 | 52.50958 | -1.76381 | 25710 ft | 387 kts | 150° |
| 2026-05-05 22:02 | 52.48670 | -1.74047 | 25299 ft | 384 kts | 150° |
| 2026-05-05 22:02 | 52.46409 | -1.71744 | 24890 ft | 381 kts | 150° |
| 2026-05-05 22:03 | 52.44195 | -1.69487 | 24495 ft | 378 kts | 150° |
| 2026-05-05 22:03 | 52.41966 | -1.67216 | 24095 ft | 374 kts | 150° |
| 2026-05-05 22:03 | 52.39758 | -1.64970 | 23677 ft | 371 kts | 150° |
| 2026-05-05 22:03 | 52.37573 | -1.62753 | 23253 ft | 368 kts | 150° |
| 2026-05-05 22:04 | 52.35413 | -1.60565 | 22849 ft | 364 kts | 150° |
| 2026-05-05 22:04 | 52.33266 | -1.58385 | 22423 ft | 361 kts | 150° |
| 2026-05-05 22:04 | 52.31135 | -1.56222 | 22004 ft | 358 kts | 150° |
| 2026-05-05 22:04 | 52.29030 | -1.54086 | 21568 ft | 355 kts | 150° |
| 2026-05-05 22:05 | 52.26933 | -1.51962 | 21131 ft | 353 kts | 150° |
| 2026-05-05 22:05 | 52.24855 | -1.49865 | 20695 ft | 350 kts | 150° |
| 2026-05-05 22:05 | 52.22803 | -1.47802 | 20260 ft | 349 kts | 150° |
| 2026-05-05 22:05 | 52.20823 | -1.45496 | 19832 ft | 352 kts | 141° |
| 2026-05-05 22:06 | 52.18951 | -1.42860 | 19485 ft | 359 kts | 141° |
| 2026-05-05 22:06 | 52.17051 | -1.40200 | 19116 ft | 359 kts | 141° |
| 2026-05-05 22:06 | 52.15176 | -1.37585 | 18752 ft | 357 kts | 141° |
| 2026-05-05 22:06 | 52.13292 | -1.34961 | 18388 ft | 355 kts | 141° |
| 2026-05-05 22:07 | 52.11395 | -1.32321 | 18008 ft | 354 kts | 141° |
| 2026-05-05 22:07 | 52.09531 | -1.29731 | 17646 ft | 352 kts | 141° |
| 2026-05-05 22:07 | 52.07676 | -1.27147 | 17285 ft | 350 kts | 141° |
| 2026-05-05 22:07 | 52.05852 | -1.24608 | 16939 ft | 349 kts | 140° |
| 2026-05-05 22:08 | 52.04013 | -1.22055 | 16583 ft | 347 kts | 140° |
| 2026-05-05 22:08 | 52.02184 | -1.19518 | 16225 ft | 345 kts | 140° |
| 2026-05-05 22:08 | 52.00354 | -1.16985 | 15870 ft | 344 kts | 140° |
| 2026-05-05 22:08 | 51.98542 | -1.14483 | 15526 ft | 342 kts | 140° |
| 2026-05-05 22:09 | 51.96731 | -1.11987 | 15175 ft | 340 kts | 140° |
| 2026-05-05 22:09 | 51.94927 | -1.09502 | 14712 ft | 341 kts | 140° |
| 2026-05-05 22:09 | 51.93091 | -1.06978 | 13781 ft | 350 kts | 140° |
| 2026-05-05 22:09 | 51.91239 | -1.04435 | 13091 ft | 343 kts | 140° |
| 2026-05-05 22:10 | 51.89484 | -1.02024 | 12965 ft | 319 kts | 140° |
| 2026-05-05 22:10 | 51.87848 | -0.99774 | 12837 ft | 299 kts | 140° |
| 2026-05-05 22:10 | 51.86308 | -0.97649 | 12656 ft | 283 kts | 138° |
| 2026-05-05 22:10 | 51.85046 | -0.95269 | 12353 ft | 277 kts | 121° |
| 2026-05-05 22:11 | 51.84161 | -0.92512 | 11983 ft | 278 kts | 115° |
| 2026-05-05 22:11 | 51.83314 | -0.89725 | 11789 ft | 273 kts | 115° |
| 2026-05-05 22:11 | 51.82483 | -0.87010 | 11424 ft | 272 kts | 115° |
| 2026-05-05 22:11 | 51.81644 | -0.84278 | 11008 ft | 270 kts | 115° |
| 2026-05-05 22:12 | 51.80814 | -0.81577 | 10559 ft | 267 kts | 115° |
| 2026-05-05 22:12 | 51.79991 | -0.78891 | 10129 ft | 265 kts | 115° |
| 2026-05-05 22:12 | 51.79175 | -0.76224 | 9756 ft | 263 kts | 115° |
| 2026-05-05 22:12 | 51.78363 | -0.73581 | 9410 ft | 261 kts | 115° |
| 2026-05-05 22:13 | 51.77567 | -0.71004 | 9114 ft | 256 kts | 115° |
| 2026-05-05 22:13 | 51.76785 | -0.68479 | 8965 ft | 246 kts | 115° |
| 2026-05-05 22:13 | 51.76029 | -0.66038 | 8667 ft | 242 kts | 115° |
| 2026-05-05 22:13 | 51.75281 | -0.63616 | 8279 ft | 239 kts | 115° |
| 2026-05-05 22:14 | 51.74538 | -0.61219 | 7882 ft | 235 kts | 115° |
| 2026-05-05 22:14 | 51.73826 | -0.58927 | 7565 ft | 232 kts | 115° |
| 2026-05-05 22:14 | 51.72862 | -0.56858 | 7338 ft | 229 kts | 136° |
| 2026-05-05 22:14 | 51.71558 | -0.55470 | 7181 ft | 222 kts | 156° |
| 2026-05-05 22:15 | 51.70100 | -0.54869 | 7074 ft | 212 kts | 175° |
| 2026-05-05 22:15 | 51.68641 | -0.54782 | 6986 ft | 207 kts | 178° |
| 2026-05-05 22:15 | 51.67209 | -0.54701 | 7001 ft | 207 kts | 178° |
| 2026-05-05 22:15 | 51.65769 | -0.54619 | 6999 ft | 206 kts | 178° |
| 2026-05-05 22:16 | 51.64333 | -0.54536 | 7018 ft | 205 kts | 178° |
| 2026-05-05 22:16 | 51.62914 | -0.54833 | 7016 ft | 207 kts | 198° |
| 2026-05-05 22:16 | 51.61663 | -0.55935 | 6995 ft | 206 kts | 220° |
| 2026-05-05 22:16 | 51.60732 | -0.57675 | 6996 ft | 205 kts | 241° |
| 2026-05-05 22:17 | 51.60244 | -0.59801 | 7000 ft | 202 kts | 262° |
| 2026-05-05 22:17 | 51.60113 | -0.62048 | 6998 ft | 202 kts | 267° |
| 2026-05-05 22:17 | 51.60001 | -0.64295 | 6999 ft | 202 kts | 268° |
| 2026-05-05 22:17 | 51.59879 | -0.66553 | 6867 ft | 203 kts | 267° |
| 2026-05-05 22:18 | 51.59743 | -0.68768 | 6625 ft | 201 kts | 266° |
| 2026-05-05 22:18 | 51.59601 | -0.70994 | 6407 ft | 200 kts | 266° |
| 2026-05-05 22:18 | 51.59460 | -0.73221 | 6191 ft | 199 kts | 266° |
| 2026-05-05 22:18 | 51.59317 | -0.75433 | 5991 ft | 199 kts | 265° |
| 2026-05-05 22:19 | 51.58843 | -0.77528 | 5709 ft | 201 kts | 237° |
| 2026-05-05 22:19 | 51.57820 | -0.79040 | 5405 ft | 203 kts | 209° |
| 2026-05-05 22:19 | 51.56946 | -0.79553 | 5215 ft | 202 kts | 190° |
| 2026-05-05 22:19 | 51.55094 | -0.79575 | 4833 ft | 200 kts | 176° |
| 2026-05-05 22:20 | 51.53705 | -0.79499 | 4532 ft | 200 kts | 176° |
| 2026-05-05 22:20 | 51.52319 | -0.79426 | 4248 ft | 199 kts | 176° |
| 2026-05-05 22:20 | 51.51383 | -0.79376 | 4056 ft | 199 kts | 176° |
| 2026-05-05 22:20 | 51.50022 | -0.79305 | 3792 ft | 198 kts | 175° |
| 2026-05-05 22:21 | 51.48664 | -0.79034 | 3544 ft | 194 kts | 153° |
| 2026-05-05 22:21 | 51.47755 | -0.77589 | 3492 ft | 184 kts | 110° |
| 2026-05-05 22:21 | 51.47602 | -0.75609 | 3349 ft | 179 kts | 85° |
| 2026-05-05 22:21 | 51.47619 | -0.73619 | 3120 ft | 177 kts | 86° |
| 2026-05-05 22:22 | 51.47630 | -0.71677 | 2891 ft | 172 kts | 86° |
| 2026-05-05 22:22 | 51.47641 | -0.69776 | 2669 ft | 169 kts | 86° |
| 2026-05-05 22:22 | 51.47652 | -0.67908 | 2449 ft | 166 kts | 87° |
| 2026-05-05 22:22 | 51.47662 | -0.66090 | 2233 ft | 159 kts | 87° |
| 2026-05-05 22:23 | 51.47672 | -0.64350 | 2025 ft | 150 kts | 87° |
| 2026-05-05 22:23 | 51.47680 | -0.62743 | 1832 ft | 140 kts | 87° |
| 2026-05-05 22:23 | 51.47689 | -0.61205 | 1650 ft | 137 kts | 88° |
| 2026-05-05 22:23 | 51.47697 | -0.59687 | 1471 ft | 135 kts | 88° |
| 2026-05-05 22:24 | 51.47704 | -0.58179 | 1293 ft | 135 kts | 88° |
| 2026-05-05 22:24 | 51.47712 | -0.56671 | 1112 ft | 135 kts | 88° |
| 2026-05-05 22:24 | 51.47719 | -0.55171 | 933 ft | 135 kts | 88° |
| 2026-05-05 22:24 | 51.47726 | -0.53671 | 754 ft | 135 kts | 88° |
| 2026-05-05 22:25 | 51.47735 | -0.52170 | 574 ft | 135 kts | 88° |
| 2026-05-05 22:25 | 51.47743 | -0.50668 | 394 ft | 135 kts | 88° |
| 2026-05-05 22:25 | 51.47751 | -0.49165 | 220 ft | 135 kts | 89° |
| 2026-05-05 22:25 | 51.47756 | -0.47679 | 94 ft | 124 kts | 89° |
| 2026-05-05 22:26 | 51.47758 | -0.46443 | 89 ft | 90 kts | 90° |
| 2026-05-05 22:26 | 51.47763 | -0.45708 | 84 ft | 41 kts | 90° |
| 2026-05-05 22:26 | 51.47730 | -0.45481 | 88 ft | 15 kts | 143° |
| 2026-05-05 22:26 | 51.47693 | -0.45467 | 86 ft | 4 kts | 176° |
| 2026-05-05 22:27 | 51.47639 | -0.45466 | 90 ft | 11 kts | 180° |
| 2026-05-05 22:27 | 51.47547 | -0.45467 | 86 ft | 15 kts | 180° |
| 2026-05-05 22:27 | 51.47508 | -0.45599 | 88 ft | 16 kts | 272° |
| 2026-05-05 22:27 | 51.47516 | -0.45797 | 88 ft | 19 kts | 276° |
| 2026-05-05 22:28 | 51.47518 | -0.46027 | 90 ft | 22 kts | 269° |
| 2026-05-05 22:28 | 51.47516 | -0.46284 | 89 ft | 24 kts | 269° |
| 2026-05-05 22:28 | 51.47515 | -0.46539 | 88 ft | 22 kts | 269° |
| 2026-05-05 22:28 | 51.47502 | -0.46759 | 88 ft | 15 kts | 247° |
| 2026-05-05 22:29 | 51.47493 | -0.46933 | 86 ft | 13 kts | 269° |
| 2026-05-05 22:29 | 51.47492 | -0.47101 | 89 ft | 16 kts | 270° |
| 2026-05-05 22:29 | 51.47491 | -0.47293 | 88 ft | 17 kts | 269° |
| 2026-05-05 22:29 | 51.47491 | -0.47477 | 86 ft | 16 kts | 270° |
| 2026-05-05 22:30 | 51.47490 | -0.47656 | 86 ft | 16 kts | 270° |
| 2026-05-05 22:30 | 51.47490 | -0.47835 | 87 ft | 16 kts | 269° |
| 2026-05-05 22:30 | 51.47489 | -0.48011 | 86 ft | 16 kts | 269° |
| 2026-05-05 22:30 | 51.47488 | -0.48188 | 90 ft | 16 kts | 270° |
| 2026-05-05 22:31 | 51.47488 | -0.48351 | 86 ft | 14 kts | 270° |
| 2026-05-05 22:31 | 51.47470 | -0.48472 | 90 ft | 10 kts | 208° |
| 2026-05-05 22:31 | 51.47398 | -0.48474 | 87 ft | 10 kts | 179° |
| 2026-05-05 22:31 | 51.47331 | -0.48474 | 87 ft | 6 kts | 181° |
| 2026-05-05 22:32 | 51.47316 | -0.48516 | 86 ft | 4 kts | 265° |
| 2026-05-05 22:32 | 51.47316 | -0.48567 | 86 ft | 4 kts | 270° |
| 2026-05-05 22:32 | 51.47316 | -0.48601 | 86 ft | 0 kts | 270° |